XS68 weather

Public forecast

Using degrees Fahrenheit for public forecast. Weather courtesy of forecast.io.

Closest aviation weather report (METAR) to Sky Lane Ranch Airport

Closest report is Brenham Municipal Airport, 3.3 nm (6.1 km) SW. Retrieved 2020/08/14 16:15 UTC (0 seconds ago):

K11R 141615Z AUTO 23007KT 10SM CLR 33/23 A2998 RMK AO2 T03260231

Closest aviation forecast (TAF) to Sky Lane Ranch Airport

Closest forecast is Easterwood Field, 20.0 nm (37.0 km) N. Retrieved 2020/08/14 12:22 UTC (4 hours ago):

TAF KCLL 141120Z 1412/1512 20006KT 6SM BR SCT010 FM141300 21006KT 6SM BR FEW015 SCT035 FM141400 21008KT P6SM FEW070 FM141900 19008KT P6SM SKC